Arvada, CO

6:13 AM MDT on October 01, 2014 (GMT -0600)
Glen Ellen | Change Station
CLOSE
Current Station
Personal Weather Station
Location: Arvada, CO
Elevation: 5377 ft
Nearby Weather Stations

Elev 5377 ft 39.80 °N, 105.09 °W | Updated 3 minutes ago

Partly Cloudy
Partly Cloudy
44.6 °F
Feels Like 45 °F
N
0.0
Wind Variable Wind from North
Gusts 0.0 mph

Today
High -- | Low -- °F
--% Chance of Precip.
Yesterday
High -- | Low -- °F
Precip. -- in
6:56 AM 6:42 PM
Waxing Crescent, 47% visible
Pressure 29.90 in
Visibility 10.0 miles
Clouds Clear
Windchill 45 °F
Dew Point 38 °F
Humidity 78%
Rainfall 0.00 in
Snow Depth 1 in , 1 in , 0 in
UV 0 out of 12
Pollen 3.40 out of 12
Ozone Good
PM2.5 Good
Flu Activity Not available.
METAR KBJC 011155Z AUTO 23003KT 10SM CLR 08/02 A2990 RMK AO2 LTG DSNT W

More Conditions Fewer Conditions

Pressure 29.90 in
Visibility 10.0 miles
Clouds Clear
Windchill 45 °F
Dew Point 38 °F
Humidity 78%
Rainfall 0.00 in
Snow Depth 1 in , 1 in , 0 in
UV 0 out of 12
Pollen 3.40 out of 12
Ozone Good
PM2.5 Good
Flu Activity Not available.
METAR KBJC 011155Z AUTO 23003KT 10SM CLR 08/02 A2990 RMK AO2 LTG DSNT W

More Conditions Fewer Conditions

10-Day Weather Forecast

Almanac

Astronomy

Oct. 01, 2014 Rise Set
Actual Time 6:56 AM MDT 6:42 PM MDT
Civil Twilight 6:29 AM MDT 7:09 PM MDT
Nautical Twilight 5:58 AM MDT 7:40 PM MDT
Astronomical Twilight 5:26 AM MDT 8:12 PM MDT
Moon 1:59 PM MDT No Moon Set
Length of Visible Light 12h 39m
Length of Day
11h 45m
Tomorrow will be 2m 34s shorter.
Waxing Crescent, 47% of the Moon is Illuminated
Today
Waxing Crescent
Oct 1
First Quarter
Oct 8
Full
Oct 15
Last Quarter
Oct 23
New

Today's Extremes

State Highs State Lows

Community

WunderPhotos

Upload Photos

1,757,914 photos uploaded!

WunderBlogs® & News

Nearby

Air Quality

  Air Quality AQ Index Pollutant
Yesterday Good
OZONE
Yesterday Good
PM10
Current Good
OZONE
Current Good
PM2.5
Wednesday Good
OZONE
Wednesday Good
PM2.5

Snow Depth

Station Depth Elevation
Medano Pass 1 in 9620 ft
Scotch Creek 1 in 9100 ft
Trapper Lake 0 in 9700 ft
Glen Cove 0 in 11460 ft
Bear RIver 0 in 9080 ft

Earthquake Activity

City Distance Mag. Time & Date
No recent earthquake activity has been reported nearby.
Minimum magnitude displayed is 2.5.

Coastal Water Temperatures

Place Temperature
No Stations Reporting

Nearby Weather Stations